createdAt,value
2022-09-05T00:00:04.844Z,39.97
2022-09-05T00:02:43.078Z,42.58
2022-09-05T00:05:21.604Z,44.35
2022-09-05T00:08:03.014Z,40.58
2022-09-05T00:11:41.755Z,44.35
2022-09-05T00:14:01.495Z,41.33
2022-09-05T00:23:47.113Z,40.35
2022-09-05T00:24:29.051Z,43.38
2022-09-05T00:25:33.440Z,39.65
2022-09-05T00:28:26.910Z,39.63
2022-09-05T00:31:54.488Z,41.05
2022-09-05T00:34:16.030Z,43.58
2022-09-05T00:36:49.421Z,41.38
2022-09-05T00:39:41.024Z,43.45
2022-09-05T00:42:18.283Z,43.90
2022-09-05T00:45:05.833Z,40.90
2022-09-05T00:47:54.764Z,45.03
2022-09-05T00:50:40.080Z,44.85
2022-09-05T00:53:17.913Z,44.40
2022-09-05T00:56:01.331Z,44.28
2022-09-05T00:58:40.228Z,44.85
2022-09-05T01:01:51.385Z,45.70
2022-09-05T01:04:44.689Z,44.38
2022-09-05T01:07:33.153Z,45.00
2022-09-05T01:10:10.240Z,44.97
2022-09-05T01:13:10.412Z,43.72
2022-09-05T01:15:53.696Z,48.10
2022-09-05T01:18:31.063Z,43.25
2022-09-05T01:21:09.847Z,44.88
2022-09-05T01:24:14.800Z,48.63
2022-09-05T01:26:59.316Z,44.95
2022-09-05T01:29:46.699Z,44.50
2022-09-05T01:32:28.412Z,44.13
2022-09-05T01:35:17.875Z,45.72
2022-09-05T01:37:51.908Z,45.70
2022-09-05T01:40:53.670Z,46.92
2022-09-05T01:43:37.535Z,46.75
2022-09-05T01:46:42.261Z,44.72
2022-09-05T01:49:20.437Z,42.88
2022-09-05T01:52:15.478Z,44.85
2022-09-05T01:54:54.186Z,44.90
2022-09-05T01:57:40.582Z,42.78
2022-09-05T02:00:30.423Z,46.70
2022-09-05T02:03:15.741Z,39.05
2022-09-05T02:06:13.074Z,40.42
2022-09-05T02:08:49.077Z,42.83
2022-09-05T02:11:16.405Z,41.22
2022-09-05T02:14:24.331Z,43.38
2022-09-05T02:17:31.982Z,42.67
2022-09-05T02:20:23.519Z,42.38
2022-09-05T02:23:31.015Z,39.78
2022-09-05T02:26:05.572Z,42.35
2022-09-05T02:28:43.829Z,40.03
2022-09-05T02:31:25.104Z,38.92
2022-09-05T02:34:07.029Z,39.72
2022-09-05T02:37:00.837Z,39.50
2022-09-05T02:45:03.485Z,36.53
2022-09-05T02:45:18.445Z,36.75
2022-09-05T02:46:16.909Z,33.55
2022-09-05T02:49:13.983Z,35.17
2022-09-05T02:57:23.743Z,34.33
2022-09-05T02:57:35.240Z,32.78
2022-09-05T02:58:13.265Z,33.58
2022-09-05T03:01:01.417Z,34.75
2022-09-05T03:03:46.471Z,35.25
2022-09-05T03:06:35.121Z,31.73
2022-09-05T03:09:17.711Z,31.08
2022-09-05T03:12:28.987Z,30.35
2022-09-05T03:15:22.475Z,29.67
2022-09-05T03:18:20.006Z,28.80
2022-09-05T03:21:12.251Z,33.03
2022-09-05T03:26:43.457Z,28.60
2022-09-05T03:29:45.930Z,28.90
2022-09-05T03:32:40.408Z,28.33
2022-09-05T03:35:30.820Z,29.98
2022-09-05T03:38:34.760Z,29.52
2022-09-05T03:41:19.437Z,30.90
2022-09-05T03:44:14.760Z,26.65
2022-09-05T03:52:21.343Z,29.75
2022-09-05T03:57:07.264Z,28.52
2022-09-05T03:57:15.714Z,30.05
2022-09-05T03:59:02.014Z,31.73
2022-09-05T04:05:12.324Z,31.77
2022-09-05T04:08:13.866Z,31.27
2022-09-05T04:08:18.933Z,33.72
2022-09-05T04:10:50.552Z,32.35
2022-09-05T04:13:37.370Z,34.25
2022-09-05T04:16:32.631Z,36.03
2022-09-05T04:19:17.756Z,30.35
2022-09-05T04:22:11.681Z,34.97
2022-09-05T04:24:49.135Z,33.10
2022-09-05T04:27:37.976Z,32.85
2022-09-05T04:30:39.439Z,33.35
2022-09-05T04:33:36.383Z,30.50
2022-09-05T04:36:36.244Z,33.80
2022-09-05T04:39:09.539Z,30.83
2022-09-05T04:41:44.000Z,32.33
2022-09-05T04:44:17.321Z,36.88
2022-09-05T04:46:49.245Z,40.78
2022-09-05T04:49:24.291Z,41.00
2022-09-05T04:52:09.675Z,37.05
2022-09-05T04:54:51.072Z,34.95
2022-09-05T04:57:31.101Z,37.50
2022-09-05T05:02:35.154Z,37.17
2022-09-05T05:06:18.517Z,37.00
2022-09-05T05:06:37.881Z,34.92
2022-09-05T05:09:19.584Z,37.50
2022-09-05T05:18:00.615Z,38.10
2022-09-05T05:18:15.779Z,38.88
2022-09-05T05:18:36.464Z,39.95
2022-09-05T05:20:53.772Z,41.55
2022-09-05T05:23:39.403Z,38.45
2022-09-05T05:26:11.759Z,42.70
2022-09-05T05:28:50.554Z,39.60
2022-09-05T05:31:22.463Z,33.85
2022-09-05T05:33:52.008Z,36.53
2022-09-05T05:36:29.978Z,38.13
2022-09-05T05:39:12.945Z,42.22
2022-09-05T05:41:51.794Z,38.33
2022-09-05T05:44:26.245Z,37.65
2022-09-05T05:47:31.303Z,38.38
2022-09-05T05:50:35.076Z,37.65
2022-09-05T05:53:07.246Z,34.88
2022-09-05T05:56:01.639Z,41.17
2022-09-05T05:58:46.816Z,35.15
2022-09-05T06:01:37.176Z,35.08
2022-09-05T06:04:16.707Z,36.63
2022-09-05T06:07:04.841Z,36.25
2022-09-05T06:14:52.060Z,32.08
2022-09-05T06:14:55.982Z,33.22
2022-09-05T06:16:33.071Z,35.75
2022-09-05T06:19:10.641Z,33.15
2022-09-05T06:22:21.426Z,39.58
2022-09-05T06:25:36.629Z,30.48
2022-09-05T06:28:18.590Z,36.03
2022-09-05T06:31:30.577Z,36.60
2022-09-05T06:34:08.153Z,31.90
2022-09-05T06:36:58.464Z,32.38
2022-09-05T06:39:53.867Z,37.50
2022-09-05T06:42:43.665Z,39.55
2022-09-05T06:45:28.453Z,34.92
2022-09-05T06:48:04.208Z,32.78
2022-09-05T06:51:07.508Z,29.65
2022-09-05T06:53:35.258Z,33.88
2022-09-05T06:56:15.773Z,35.72
2022-09-05T06:59:02.704Z,35.20
2022-09-05T07:02:00.622Z,31.02
2022-09-05T07:05:23.893Z,21.73
2022-09-05T07:07:48.510Z,25.48
2022-09-05T07:10:39.732Z,26.40
2022-09-05T07:13:26.145Z,26.98
2022-09-05T07:16:10.892Z,30.17
2022-09-05T07:19:00.125Z,27.85
2022-09-05T07:21:43.118Z,25.55
2022-09-05T07:24:24.493Z,29.45
2022-09-05T07:27:29.779Z,28.83
2022-09-05T07:30:00.897Z,32.08
2022-09-05T07:32:29.787Z,26.75
2022-09-05T07:34:59.834Z,26.80
2022-09-05T07:37:36.903Z,28.58
2022-09-05T07:40:21.711Z,26.35
2022-09-05T07:43:25.787Z,26.33
2022-09-05T07:46:01.578Z,23.00
2022-09-05T07:48:34.833Z,22.80
2022-09-05T07:56:47.161Z,20.20
2022-09-05T07:56:58.566Z,21.88
2022-09-05T07:59:50.761Z,18.85
2022-09-05T08:02:17.327Z,22.55
2022-09-05T08:04:43.968Z,22.85
2022-09-05T08:07:49.086Z,20.58
2022-09-05T08:11:22.038Z,20.38
2022-09-05T08:13:46.626Z,20.88
2022-09-05T08:16:21.445Z,20.65
2022-09-05T08:18:54.307Z,20.63
2022-09-05T08:21:39.246Z,17.95
2022-09-05T08:24:24.641Z,17.13
2022-09-05T08:26:58.850Z,17.65
2022-09-05T08:29:30.897Z,14.95
2022-09-05T08:32:09.352Z,15.25
2022-09-05T08:35:11.234Z,17.33
2022-09-05T08:37:38.256Z,17.70
2022-09-05T08:40:30.546Z,17.95
2022-09-05T08:46:18.589Z,16.42
2022-09-05T08:46:39.790Z,16.88
2022-09-05T08:49:11.295Z,16.02
2022-09-05T08:51:55.306Z,15.60
2022-09-05T08:55:06.334Z,19.02
2022-09-05T08:57:45.432Z,16.83
2022-09-05T09:00:24.681Z,15.40
2022-09-05T09:03:04.284Z,14.57
2022-09-05T09:06:13.190Z,16.02
2022-09-05T09:09:10.404Z,15.27
2022-09-05T09:11:51.117Z,14.85
2022-09-05T09:14:30.888Z,13.32
2022-09-05T09:17:16.257Z,13.70
2022-09-05T09:20:11.987Z,19.42
2022-09-05T09:23:03.857Z,17.15
2022-09-05T09:25:39.691Z,15.02
2022-09-05T09:28:46.753Z,14.80
2022-09-05T09:31:22.768Z,15.98
2022-09-05T09:34:32.797Z,11.77
2022-09-05T09:37:31.945Z,14.95
2022-09-05T09:40:39.814Z,14.48
2022-09-05T09:43:27.308Z,12.25
2022-09-05T09:46:15.511Z,13.45
2022-09-05T09:49:03.140Z,17.88
2022-09-05T09:51:36.828Z,11.48
2022-09-05T09:54:03.221Z,11.25
2022-09-05T09:56:47.916Z,9.63
2022-09-05T09:59:54.291Z,13.27
2022-09-05T10:07:19.925Z,11.13
2022-09-05T10:10:38.326Z,10.35
2022-09-05T10:10:49.595Z,8.70
2022-09-05T10:12:37.024Z,8.30
2022-09-05T10:15:32.482Z,10.55
2022-09-05T10:18:32.595Z,8.80
2022-09-05T10:21:16.225Z,14.15
2022-09-05T10:23:52.227Z,10.40
2022-09-05T10:26:56.757Z,10.52
2022-09-05T10:29:37.718Z,8.73
2022-09-05T10:35:06.116Z,8.30
2022-09-05T10:35:33.812Z,8.07
2022-09-05T10:38:13.987Z,9.30
2022-09-05T10:41:21.537Z,6.57
2022-09-05T10:43:38.928Z,9.13
2022-09-05T10:46:50.770Z,8.30
2022-09-05T10:49:24.550Z,6.97
2022-09-05T10:52:40.041Z,7.07
2022-09-05T10:55:26.271Z,6.30
2022-09-05T10:57:58.990Z,7.55
2022-09-05T11:02:23.924Z,6.38
2022-09-05T11:03:50.747Z,14.95
2022-09-05T11:06:27.169Z,7.78
2022-09-05T11:09:06.994Z,7.55
2022-09-05T11:11:47.887Z,7.95
2022-09-05T11:14:32.164Z,9.38
2022-09-05T11:17:29.177Z,6.57
2022-09-05T11:20:26.107Z,11.05
2022-09-05T11:23:09.928Z,6.85
2022-09-05T11:25:40.626Z,7.00
2022-09-05T11:28:18.675Z,7.18
2022-09-05T11:30:53.327Z,6.18
2022-09-05T11:37:35.804Z,7.15
2022-09-05T11:40:00.279Z,5.30
2022-09-05T11:40:30.124Z,5.68
2022-09-05T11:42:57.191Z,5.25
2022-09-05T11:45:45.900Z,5.78
2022-09-05T11:48:27.507Z,5.38
2022-09-05T11:51:44.754Z,9.38
2022-09-05T11:54:29.052Z,8.88
2022-09-05T11:57:30.415Z,4.88
2022-09-05T12:00:33.705Z,6.35
2022-09-05T12:03:58.929Z,9.48
2022-09-05T12:06:50.143Z,7.15
2022-09-05T12:09:25.951Z,8.95
2022-09-05T12:12:34.145Z,5.80
2022-09-05T12:15:23.873Z,6.88
2022-09-05T12:18:21.538Z,5.70
2022-09-05T12:21:02.733Z,5.72
2022-09-05T12:24:28.561Z,5.07
2022-09-05T12:27:43.065Z,5.60
2022-09-05T12:29:48.475Z,5.88
2022-09-05T12:33:32.776Z,5.43
2022-09-05T12:40:56.977Z,5.75
2022-09-05T12:41:44.589Z,7.57
2022-09-05T12:44:38.664Z,10.00
2022-09-05T12:46:56.904Z,5.65
2022-09-05T12:49:39.469Z,8.48
2022-09-05T12:52:22.942Z,5.50
2022-09-05T12:54:57.088Z,5.50
2022-09-05T13:02:58.702Z,8.02
2022-09-05T13:03:14.547Z,6.20
2022-09-05T13:03:28.252Z,4.95
2022-09-05T13:06:24.922Z,5.70
2022-09-05T13:09:00.057Z,5.60
2022-09-05T13:14:49.096Z,7.57
2022-09-05T13:15:00.499Z,5.90
2022-09-05T13:17:13.935Z,7.30
2022-09-05T13:19:51.394Z,6.45
2022-09-05T13:22:22.477Z,5.20
2022-09-05T13:25:08.925Z,4.40
2022-09-05T13:27:42.299Z,8.32
2022-09-05T13:32:16.255Z,4.78
2022-09-05T13:38:00.413Z,6.68
2022-09-05T13:38:07.412Z,6.23
2022-09-05T13:39:06.055Z,5.77
2022-09-05T13:41:43.568Z,6.82
2022-09-05T13:44:26.573Z,4.18
2022-09-05T13:47:29.757Z,8.02
2022-09-05T13:50:10.367Z,9.65
2022-09-05T13:52:59.643Z,4.70
2022-09-05T13:55:45.662Z,5.30
2022-09-05T13:58:36.242Z,7.18
2022-09-05T14:01:17.501Z,5.47
2022-09-05T14:04:11.664Z,7.22
2022-09-05T14:10:35.597Z,5.90
2022-09-05T14:13:18.013Z,5.47
2022-09-05T14:15:58.990Z,4.80
2022-09-05T14:18:33.831Z,3.75
2022-09-05T14:21:16.300Z,5.80
2022-09-05T14:23:56.683Z,7.63
2022-09-05T14:26:43.965Z,9.93
2022-09-05T14:29:13.997Z,11.43
2022-09-05T14:37:34.936Z,7.15
2022-09-05T14:37:44.465Z,5.25
2022-09-05T14:38:09.365Z,6.25
2022-09-05T14:41:10.695Z,8.43
2022-09-05T14:43:56.996Z,6.32
2022-09-05T14:46:49.843Z,5.80
2022-09-05T14:49:34.519Z,5.45
2022-09-05T14:52:28.209Z,4.97
2022-09-05T15:02:39.148Z,5.10
2022-09-05T15:02:48.693Z,4.07
2022-09-05T15:06:35.438Z,5.50
2022-09-05T15:12:21.379Z,5.85
2022-09-05T15:14:45.081Z,4.80
2022-09-05T15:17:21.628Z,11.05
2022-09-05T15:20:06.399Z,6.13
2022-09-05T15:22:37.245Z,7.25
2022-09-05T15:25:17.944Z,5.35
2022-09-05T15:27:46.310Z,6.93
2022-09-05T15:30:35.802Z,5.82
2022-09-05T15:33:30.469Z,4.95
2022-09-05T15:35:59.342Z,5.13
2022-09-05T15:38:30.610Z,6.82
2022-09-05T15:41:17.540Z,7.22
2022-09-05T15:44:09.396Z,10.32
2022-09-05T15:46:59.261Z,5.68
2022-09-05T15:49:39.453Z,9.18
2022-09-05T15:52:18.121Z,4.78
2022-09-05T15:55:19.613Z,4.28
2022-09-05T15:57:54.085Z,9.50
2022-09-05T16:00:32.792Z,6.45
2022-09-05T16:04:12.824Z,6.95
2022-09-05T16:10:48.419Z,6.28
2022-09-05T16:10:50.569Z,9.73
2022-09-05T16:14:36.502Z,5.93
2022-09-05T16:23:13.469Z,12.10
2022-09-05T16:23:33.600Z,11.32
2022-09-05T16:23:41.453Z,7.63
2022-09-05T16:26:25.878Z,5.55
2022-09-05T16:28:58.238Z,9.80
2022-09-05T16:31:49.349Z,6.97
2022-09-05T16:34:31.902Z,5.22
2022-09-05T16:37:09.530Z,3.95
2022-09-05T16:39:41.505Z,5.07
2022-09-05T16:42:20.579Z,7.43
2022-09-05T16:44:57.768Z,7.00
2022-09-05T16:47:42.740Z,6.00
2022-09-05T16:50:34.486Z,12.10
2022-09-05T16:53:30.236Z,5.18
2022-09-05T16:56:03.244Z,7.28
2022-09-05T16:58:41.901Z,4.97
2022-09-05T17:01:30.216Z,5.57
2022-09-05T17:04:24.767Z,5.78
2022-09-05T17:06:57.508Z,6.25
2022-09-05T17:09:29.242Z,6.30
2022-09-05T17:12:02.240Z,7.68
2022-09-05T17:14:40.063Z,6.25
2022-09-05T17:17:43.949Z,5.15
2022-09-05T17:20:09.298Z,6.40
2022-09-05T17:25:05.427Z,4.97
2022-09-05T17:29:28.938Z,5.75
2022-09-05T17:29:43.224Z,6.40
2022-09-05T17:31:58.029Z,8.82
2022-09-05T17:34:34.374Z,6.93
2022-09-05T17:37:13.757Z,6.05
2022-09-05T17:40:11.942Z,6.47
2022-09-05T17:42:59.637Z,10.30
2022-09-05T17:45:39.178Z,6.93
2022-09-05T17:48:06.061Z,6.83
2022-09-05T17:50:43.791Z,8.98
2022-09-05T17:53:25.167Z,7.13
2022-09-05T17:55:54.584Z,9.25
2022-09-05T17:58:49.579Z,6.50
2022-09-05T18:01:26.905Z,8.35
2022-09-05T18:04:16.167Z,11.23
2022-09-05T18:06:52.805Z,10.98
2022-09-05T18:13:11.672Z,11.20
2022-09-05T18:15:27.352Z,8.98
2022-09-05T18:17:53.788Z,5.95
2022-09-05T18:26:44.731Z,6.53
2022-09-05T18:32:38.221Z,8.95
2022-09-05T18:35:26.656Z,10.13
2022-09-05T18:38:04.447Z,7.25
2022-09-05T18:40:39.290Z,9.75
2022-09-05T18:43:35.082Z,10.02
2022-09-05T18:46:22.443Z,8.00
2022-09-05T18:50:05.209Z,10.13
2022-09-05T18:52:07.401Z,13.70
2022-09-05T18:54:36.103Z,9.75
2022-09-05T18:57:27.218Z,10.30
2022-09-05T19:00:00.304Z,7.35
2022-09-05T19:03:08.263Z,12.15
2022-09-05T19:05:45.788Z,8.38
2022-09-05T19:08:31.942Z,6.70
2022-09-05T19:11:01.715Z,11.68
2022-09-05T19:13:49.382Z,10.05
2022-09-05T19:16:42.402Z,9.65
2022-09-05T19:19:16.164Z,8.45
2022-09-05T19:22:33.160Z,9.68
2022-09-05T19:24:45.766Z,11.27
2022-09-05T19:31:29.321Z,12.68
2022-09-05T19:36:47.283Z,9.63
2022-09-05T19:37:03.788Z,11.95
2022-09-05T19:37:05.137Z,11.23
2022-09-05T19:38:23.900Z,10.85
2022-09-05T19:47:34.344Z,12.95
2022-09-05T19:47:36.033Z,10.13
2022-09-05T19:47:45.336Z,9.93
2022-09-05T19:49:13.074Z,9.07
2022-09-05T19:51:41.265Z,7.68
2022-09-05T19:54:21.969Z,10.23
2022-09-05T19:59:19.972Z,12.80
2022-09-05T20:01:47.715Z,21.55
2022-09-05T20:04:18.709Z,12.93
2022-09-05T20:06:50.184Z,10.07
2022-09-05T20:09:22.386Z,12.77
2022-09-05T20:11:57.824Z,12.88
2022-09-05T20:14:36.604Z,14.43
2022-09-05T20:17:43.094Z,15.25
2022-09-05T20:20:12.443Z,20.50
2022-09-05T20:22:48.875Z,17.23
2022-09-05T20:25:35.317Z,14.27
2022-09-05T20:28:07.108Z,18.77
2022-09-05T20:30:41.305Z,16.73
2022-09-05T20:33:34.503Z,17.13
2022-09-05T20:38:51.949Z,17.77
2022-09-05T20:43:23.029Z,21.75
2022-09-05T20:44:50.437Z,20.85
2022-09-05T20:50:44.420Z,23.75
2022-09-05T20:54:15.844Z,20.70
2022-09-05T20:54:32.224Z,21.02
2022-09-05T20:56:10.265Z,20.15
2022-09-05T20:58:38.977Z,21.20
2022-09-05T21:01:32.514Z,18.45
2022-09-05T21:04:04.732Z,16.02
2022-09-05T21:06:34.538Z,22.63
2022-09-05T21:09:24.717Z,16.30
2022-09-05T21:14:21.497Z,18.25
2022-09-05T21:16:56.233Z,14.93
2022-09-05T21:19:27.816Z,22.85
2022-09-05T21:22:03.149Z,17.65
2022-09-05T21:24:30.090Z,20.38
2022-09-05T21:27:16.680Z,21.10
2022-09-05T21:29:43.739Z,18.55
2022-09-05T21:32:14.590Z,17.40
2022-09-05T21:34:48.407Z,18.80
2022-09-05T21:37:16.658Z,17.92
2022-09-05T21:39:59.623Z,17.98
2022-09-05T21:42:39.133Z,18.25
2022-09-05T21:47:39.510Z,17.58
2022-09-05T21:48:07.417Z,19.25
2022-09-05T21:50:41.139Z,20.00
2022-09-05T21:57:21.833Z,20.55
2022-09-05T21:59:29.949Z,24.00
2022-09-05T21:59:37.193Z,19.63
2022-09-05T22:01:51.770Z,23.13
2022-09-05T22:04:21.731Z,22.48
2022-09-05T22:06:48.910Z,22.63
2022-09-05T22:09:17.662Z,22.73
2022-09-05T22:11:50.024Z,20.52
2022-09-05T22:14:21.264Z,21.55
2022-09-05T22:16:50.681Z,23.85
2022-09-05T22:19:26.170Z,26.25
2022-09-05T22:22:18.205Z,24.90
2022-09-05T22:24:56.539Z,24.75
2022-09-05T22:27:26.301Z,24.13
2022-09-05T22:29:53.045Z,25.45
2022-09-05T22:32:34.584Z,25.48
2022-09-05T22:35:27.170Z,27.73
2022-09-05T22:37:55.302Z,25.10
2022-09-05T22:40:25.933Z,28.40
2022-09-05T22:43:00.706Z,28.10
2022-09-05T22:45:29.027Z,29.33
2022-09-05T22:47:55.891Z,27.85
2022-09-05T22:50:22.768Z,30.52
2022-09-05T22:52:49.434Z,28.52
2022-09-05T22:55:16.348Z,30.85
2022-09-05T22:57:42.847Z,31.65
2022-09-05T23:00:10.662Z,34.70
2022-09-05T23:02:37.225Z,32.83
2022-09-05T23:05:05.479Z,30.80
2022-09-05T23:07:32.600Z,31.85
2022-09-05T23:09:59.312Z,29.45
2022-09-05T23:12:25.898Z,46.25
2022-09-05T23:14:52.447Z,31.25
2022-09-05T23:17:18.953Z,29.90
2022-09-05T23:19:45.486Z,31.13
2022-09-05T23:22:11.932Z,29.55
2022-09-05T23:24:38.381Z,30.80
2022-09-05T23:27:04.821Z,32.75
2022-09-05T23:29:31.266Z,31.17
2022-09-05T23:31:57.706Z,38.38
2022-09-05T23:34:25.498Z,33.78
2022-09-05T23:36:51.948Z,33.65
2022-09-05T23:39:18.384Z,34.05
2022-09-05T23:41:44.947Z,35.13
2022-09-05T23:44:11.914Z,36.45
2022-09-05T23:46:40.278Z,35.42
2022-09-05T23:49:07.066Z,33.70
2022-09-05T23:51:33.753Z,36.65
2022-09-05T23:54:00.252Z,42.78
2022-09-05T23:56:27.601Z,37.53
2022-09-05T23:58:54.041Z,31.00
